sensor_id;sensor_type;location;lat;lon;timestamp;pressure;altitude;pressure_sealevel;temperature;humidity
8140;BME280;4111;50.972;7.072;2023-04-27T00:00:37;101450.84;;;9.34;61.42
8140;BME280;4111;50.972;7.072;2023-04-27T00:03:04;101450.47;;;9.30;61.87
8140;BME280;4111;50.972;7.072;2023-04-27T00:05:35;101450.00;;;9.33;62.20
8140;BME280;4111;50.972;7.072;2023-04-27T00:08:05;101447.50;;;9.32;62.70
8140;BME280;4111;50.972;7.072;2023-04-27T00:10:32;101451.34;;;9.24;62.90
8140;BME280;4111;50.972;7.072;2023-04-27T00:12:58;101450.94;;;9.21;63.19
8140;BME280;4111;50.972;7.072;2023-04-27T00:15:25;101448.47;;;9.19;63.24
8140;BME280;4111;50.972;7.072;2023-04-27T00:17:52;101451.59;;;9.16;63.75
8140;BME280;4111;50.972;7.072;2023-04-27T00:20:18;101450.56;;;9.17;63.46
8140;BME280;4111;50.972;7.072;2023-04-27T00:22:45;101454.31;;;9.16;63.82
8140;BME280;4111;50.972;7.072;2023-04-27T00:25:12;101448.13;;;9.09;64.14
8140;BME280;4111;50.972;7.072;2023-04-27T00:27:38;101454.41;;;9.03;64.58
8140;BME280;4111;50.972;7.072;2023-04-27T00:30:05;101449.41;;;9.00;64.91
8140;BME280;4111;50.972;7.072;2023-04-27T00:32:32;101451.91;;;9.01;64.57
8140;BME280;4111;50.972;7.072;2023-04-27T00:34:58;101457.34;;;9.01;64.73
8140;BME280;4111;50.972;7.072;2023-04-27T00:37:24;101456.13;;;8.97;64.58
8140;BME280;4111;50.972;7.072;2023-04-27T00:39:51;101460.03;;;9.01;64.54
8140;BME280;4111;50.972;7.072;2023-04-27T00:42:18;101462.34;;;8.98;64.73
8140;BME280;4111;50.972;7.072;2023-04-27T00:44:45;101459.47;;;8.92;64.62
8140;BME280;4111;50.972;7.072;2023-04-27T00:47:12;101457.75;;;9.05;64.17
8140;BME280;4111;50.972;7.072;2023-04-27T00:49:39;101454.03;;;8.92;64.91
8140;BME280;4111;50.972;7.072;2023-04-27T00:52:06;101458.22;;;8.88;64.90
8140;BME280;4111;50.972;7.072;2023-04-27T00:54:33;101455.09;;;8.91;64.75
8140;BME280;4111;50.972;7.072;2023-04-27T00:56:59;101465.75;;;8.86;64.75
8140;BME280;4111;50.972;7.072;2023-04-27T00:59:25;101458.69;;;8.79;64.92
8140;BME280;4111;50.972;7.072;2023-04-27T01:01:53;101463.69;;;8.82;65.00
8140;BME280;4111;50.972;7.072;2023-04-27T01:04:20;101458.34;;;8.75;65.13
8140;BME280;4111;50.972;7.072;2023-04-27T01:06:47;101454.16;;;8.79;64.79
8140;BME280;4111;50.972;7.072;2023-04-27T01:09:13;101462.44;;;8.84;65.29
8140;BME280;4111;50.972;7.072;2023-04-27T01:11:41;101462.47;;;8.78;66.06
8140;BME280;4111;50.972;7.072;2023-04-27T01:14:08;101456.66;;;8.74;65.91
8140;BME280;4111;50.972;7.072;2023-04-27T01:16:34;101461.31;;;8.67;65.72
8140;BME280;4111;50.972;7.072;2023-04-27T01:19:01;101459.19;;;8.69;65.58
8140;BME280;4111;50.972;7.072;2023-04-27T01:21:27;101470.03;;;8.62;66.11
8140;BME280;4111;50.972;7.072;2023-04-27T01:23:54;101463.19;;;8.60;66.83
8140;BME280;4111;50.972;7.072;2023-04-27T01:26:20;101459.25;;;8.56;66.68
8140;BME280;4111;50.972;7.072;2023-04-27T01:28:47;101468.84;;;8.51;67.02
8140;BME280;4111;50.972;7.072;2023-04-27T01:31:14;101463.19;;;8.60;67.22
8140;BME280;4111;50.972;7.072;2023-04-27T01:33:41;101455.06;;;8.60;66.88
8140;BME280;4111;50.972;7.072;2023-04-27T01:36:08;101465.91;;;8.60;67.06
8140;BME280;4111;50.972;7.072;2023-04-27T01:38:34;101458.59;;;8.60;66.40
8140;BME280;4111;50.972;7.072;2023-04-27T01:41:03;101458.81;;;8.59;66.33
8140;BME280;4111;50.972;7.072;2023-04-27T01:43:30;101458.25;;;8.37;65.99
8140;BME280;4111;50.972;7.072;2023-04-27T01:46:10;101458.94;;;8.19;66.05
8140;BME280;4111;50.972;7.072;2023-04-27T01:48:38;101460.84;;;8.18;65.70
8140;BME280;4111;50.972;7.072;2023-04-27T01:51:05;101462.31;;;8.01;65.63
8140;BME280;4111;50.972;7.072;2023-04-27T01:53:32;101465.66;;;7.89;65.52
8140;BME280;4111;50.972;7.072;2023-04-27T01:55:59;101470.03;;;7.84;65.69
8140;BME280;4111;50.972;7.072;2023-04-27T01:58:26;101471.94;;;7.83;66.01
8140;BME280;4111;50.972;7.072;2023-04-27T02:00:52;101463.19;;;7.88;66.01
8140;BME280;4111;50.972;7.072;2023-04-27T02:03:19;101467.75;;;7.94;65.87
8140;BME280;4111;50.972;7.072;2023-04-27T02:05:46;101478.13;;;7.97;65.54
8140;BME280;4111;50.972;7.072;2023-04-27T02:08:13;101477.72;;;8.00;65.23
8140;BME280;4111;50.972;7.072;2023-04-27T02:10:40;101482.50;;;8.05;65.38
8140;BME280;4111;50.972;7.072;2023-04-27T02:13:06;101478.13;;;8.10;65.19
8140;BME280;4111;50.972;7.072;2023-04-27T02:15:32;101479.75;;;8.11;65.24
8140;BME280;4111;50.972;7.072;2023-04-27T02:18:01;101473.56;;;8.04;65.16
8140;BME280;4111;50.972;7.072;2023-04-27T02:20:31;101467.13;;;7.99;65.10
8140;BME280;4111;50.972;7.072;2023-04-27T02:22:58;101468.38;;;7.96;65.03
8140;BME280;4111;50.972;7.072;2023-04-27T02:25:25;101477.34;;;7.77;65.25
8140;BME280;4111;50.972;7.072;2023-04-27T02:27:52;101472.16;;;7.62;65.83
8140;BME280;4111;50.972;7.072;2023-04-27T02:30:19;101472.78;;;7.64;65.98
8140;BME280;4111;50.972;7.072;2023-04-27T02:32:46;101477.97;;;7.65;65.93
8140;BME280;4111;50.972;7.072;2023-04-27T02:35:13;101476.34;;;7.64;65.77
8140;BME280;4111;50.972;7.072;2023-04-27T02:37:39;101485.06;;;7.66;66.06
8140;BME280;4111;50.972;7.072;2023-04-27T02:40:07;101478.63;;;7.61;65.67
8140;BME280;4111;50.972;7.072;2023-04-27T02:42:34;101481.09;;;7.49;65.58
8140;BME280;4111;50.972;7.072;2023-04-27T02:45:01;101480.06;;;7.43;65.80
8140;BME280;4111;50.972;7.072;2023-04-27T02:47:27;101479.00;;;7.18;66.43
8140;BME280;4111;50.972;7.072;2023-04-27T02:49:53;101469.03;;;7.11;66.60
8140;BME280;4111;50.972;7.072;2023-04-27T02:52:20;101466.31;;;7.18;66.71
8140;BME280;4111;50.972;7.072;2023-04-27T02:54:46;101466.31;;;7.05;67.08
8140;BME280;4111;50.972;7.072;2023-04-27T02:57:13;101460.69;;;7.06;67.08
8140;BME280;4111;50.972;7.072;2023-04-27T02:59:39;101457.78;;;7.14;66.93
8140;BME280;4111;50.972;7.072;2023-04-27T03:02:05;101463.63;;;7.18;66.72
8140;BME280;4111;50.972;7.072;2023-04-27T03:04:32;101457.19;;;7.06;66.73
8140;BME280;4111;50.972;7.072;2023-04-27T03:06:59;101456.97;;;7.14;67.06
8140;BME280;4111;50.972;7.072;2023-04-27T03:09:25;101452.63;;;7.13;67.00
8140;BME280;4111;50.972;7.072;2023-04-27T03:11:52;101461.53;;;7.07;67.03
8140;BME280;4111;50.972;7.072;2023-04-27T03:14:18;101457.41;;;7.18;66.83
8140;BME280;4111;50.972;7.072;2023-04-27T03:16:44;101446.16;;;7.14;66.55
8140;BME280;4111;50.972;7.072;2023-04-27T03:19:11;101454.69;;;7.24;66.99
8140;BME280;4111;50.972;7.072;2023-04-27T03:21:38;101453.03;;;7.23;66.95
8140;BME280;4111;50.972;7.072;2023-04-27T03:24:04;101454.88;;;7.03;66.92
8140;BME280;4111;50.972;7.072;2023-04-27T03:26:31;101461.13;;;7.03;67.09
8140;BME280;4111;50.972;7.072;2023-04-27T03:28:57;101465.28;;;7.06;67.42
8140;BME280;4111;50.972;7.072;2023-04-27T03:31:24;101462.78;;;7.04;67.33
8140;BME280;4111;50.972;7.072;2023-04-27T03:33:50;101462.34;;;7.01;67.49
8140;BME280;4111;50.972;7.072;2023-04-27T03:36:17;101457.38;;;7.04;67.47
8140;BME280;4111;50.972;7.072;2023-04-27T03:38:43;101468.59;;;7.08;67.20
8140;BME280;4111;50.972;7.072;2023-04-27T03:41:09;101461.72;;;6.92;67.33
8140;BME280;4111;50.972;7.072;2023-04-27T03:43:36;101459.66;;;6.87;67.59
8140;BME280;4111;50.972;7.072;2023-04-27T03:46:03;101459.59;;;6.81;67.77
8140;BME280;4111;50.972;7.072;2023-04-27T03:48:29;101454.88;;;6.89;68.01
8140;BME280;4111;50.972;7.072;2023-04-27T03:50:56;101460.28;;;6.96;68.21
8140;BME280;4111;50.972;7.072;2023-04-27T03:53:22;101460.66;;;6.93;67.77
8140;BME280;4111;50.972;7.072;2023-04-27T03:55:49;101457.34;;;6.84;68.41
8140;BME280;4111;50.972;7.072;2023-04-27T03:58:15;101459.41;;;6.89;68.54
8140;BME280;4111;50.972;7.072;2023-04-27T04:00:42;101468.56;;;6.94;68.70
8140;BME280;4111;50.972;7.072;2023-04-27T04:03:09;101464.22;;;6.93;68.25
8140;BME280;4111;50.972;7.072;2023-04-27T04:05:36;101469.63;;;6.93;68.33
8140;BME280;4111;50.972;7.072;2023-04-27T04:08:02;101476.47;;;6.96;68.33
8140;BME280;4111;50.972;7.072;2023-04-27T04:10:29;101470.25;;;7.02;67.95
8140;BME280;4111;50.972;7.072;2023-04-27T04:12:55;101472.75;;;6.97;68.21
8140;BME280;4111;50.972;7.072;2023-04-27T04:15:21;101477.09;;;6.91;68.44
8140;BME280;4111;50.972;7.072;2023-04-27T04:17:48;101484.75;;;6.88;69.21
8140;BME280;4111;50.972;7.072;2023-04-27T04:20:14;101491.63;;;6.90;69.35
8140;BME280;4111;50.972;7.072;2023-04-27T04:22:41;101494.94;;;6.92;69.43
8140;BME280;4111;50.972;7.072;2023-04-27T04:25:08;101494.31;;;6.84;68.93
8140;BME280;4111;50.972;7.072;2023-04-27T04:27:36;101488.47;;;6.87;68.94
8140;BME280;4111;50.972;7.072;2023-04-27T04:30:04;101495.94;;;6.78;69.13
8140;BME280;4111;50.972;7.072;2023-04-27T04:32:32;101498.84;;;6.77;69.08
8140;BME280;4111;50.972;7.072;2023-04-27T04:34:59;101498.66;;;6.78;69.66
8140;BME280;4111;50.972;7.072;2023-04-27T04:37:26;101501.72;;;6.68;69.44
8140;BME280;4111;50.972;7.072;2023-04-27T04:39:53;101494.69;;;6.74;69.30
8140;BME280;4111;50.972;7.072;2023-04-27T04:42:19;101490.94;;;6.75;69.39
8140;BME280;4111;50.972;7.072;2023-04-27T04:44:46;101498.03;;;6.76;69.26
8140;BME280;4111;50.972;7.072;2023-04-27T04:47:12;101501.72;;;6.62;69.37
8140;BME280;4111;50.972;7.072;2023-04-27T04:49:39;101503.78;;;6.60;69.90
8140;BME280;4111;50.972;7.072;2023-04-27T04:52:05;101505.22;;;6.62;70.29
8140;BME280;4111;50.972;7.072;2023-04-27T04:54:31;101508.31;;;6.52;70.76
8140;BME280;4111;50.972;7.072;2023-04-27T04:56:58;101501.47;;;6.57;70.59
8140;BME280;4111;50.972;7.072;2023-04-27T04:59:26;101504.00;;;6.65;70.20
8140;BME280;4111;50.972;7.072;2023-04-27T05:01:52;101504.63;;;6.67;70.53
8140;BME280;4111;50.972;7.072;2023-04-27T05:04:22;101502.53;;;6.62;70.33
8140;BME280;4111;50.972;7.072;2023-04-27T05:06:48;101506.75;;;6.78;70.46
8140;BME280;4111;50.972;7.072;2023-04-27T05:09:14;101508.38;;;6.66;70.31
8140;BME280;4111;50.972;7.072;2023-04-27T05:11:41;101515.03;;;6.70;70.58
8140;BME280;4111;50.972;7.072;2023-04-27T05:14:07;101517.53;;;6.71;70.77
8140;BME280;4111;50.972;7.072;2023-04-27T05:16:34;101518.75;;;6.69;70.38
8140;BME280;4111;50.972;7.072;2023-04-27T05:19:00;101525.41;;;6.73;70.74
8140;BME280;4111;50.972;7.072;2023-04-27T05:21:27;101515.03;;;6.77;70.86
8140;BME280;4111;50.972;7.072;2023-04-27T05:23:53;101526.28;;;6.87;70.90
8140;BME280;4111;50.972;7.072;2023-04-27T05:26:20;101527.16;;;7.01;70.58
8140;BME280;4111;50.972;7.072;2023-04-27T05:28:47;101518.06;;;7.15;70.07
8140;BME280;4111;50.972;7.072;2023-04-27T05:31:14;101525.34;;;7.21;69.96
8140;BME280;4111;50.972;7.072;2023-04-27T05:33:41;101524.69;;;7.12;70.09
8140;BME280;4111;50.972;7.072;2023-04-27T05:36:07;101512.66;;;7.22;70.24
8140;BME280;4111;50.972;7.072;2023-04-27T05:38:34;101525.97;;;7.23;69.92
8140;BME280;4111;50.972;7.072;2023-04-27T05:41:05;101528.88;;;7.28;70.00
8140;BME280;4111;50.972;7.072;2023-04-27T05:43:31;101529.72;;;7.35;69.91
8140;BME280;4111;50.972;7.072;2023-04-27T05:46:00;101534.28;;;7.28;69.53
8140;BME280;4111;50.972;7.072;2023-04-27T05:48:27;101538.22;;;7.32;69.82
8140;BME280;4111;50.972;7.072;2023-04-27T05:51:00;101543.47;;;7.41;69.88
8140;BME280;4111;50.972;7.072;2023-04-27T05:53:27;101544.72;;;7.45;69.61
8140;BME280;4111;50.972;7.072;2023-04-27T05:55:55;101549.72;;;7.54;69.65
8140;BME280;4111;50.972;7.072;2023-04-27T05:58:21;101540.97;;;7.59;69.25
8140;BME280;4111;50.972;7.072;2023-04-27T06:00:48;101544.09;;;7.63;68.84
8140;BME280;4111;50.972;7.072;2023-04-27T06:03:15;101545.34;;;7.60;68.95
8140;BME280;4111;50.972;7.072;2023-04-27T06:05:42;101553.06;;;7.77;68.59
8140;BME280;4111;50.972;7.072;2023-04-27T06:08:10;101548.06;;;8.00;68.58
8140;BME280;4111;50.972;7.072;2023-04-27T06:10:40;101552.63;;;8.06;68.16
8140;BME280;4111;50.972;7.072;2023-04-27T06:13:06;101546.78;;;8.09;67.69
8140;BME280;4111;50.972;7.072;2023-04-27T06:15:33;101551.78;;;8.12;67.40
8140;BME280;4111;50.972;7.072;2023-04-27T06:17:59;101565.91;;;8.14;67.02
8140;BME280;4111;50.972;7.072;2023-04-27T06:20:26;101560.50;;;8.14;66.80
8140;BME280;4111;50.972;7.072;2023-04-27T06:22:52;101560.28;;;8.23;67.14
8140;BME280;4111;50.972;7.072;2023-04-27T06:25:19;101561.28;;;8.35;66.57
8140;BME280;4111;50.972;7.072;2023-04-27T06:27:45;101561.75;;;8.45;66.72
8140;BME280;4111;50.972;7.072;2023-04-27T06:30:12;101562.97;;;8.49;65.96
8140;BME280;4111;50.972;7.072;2023-04-27T06:32:39;101560.81;;;8.71;65.97
8140;BME280;4111;50.972;7.072;2023-04-27T06:35:06;101566.66;;;8.75;65.38
8140;BME280;4111;50.972;7.072;2023-04-27T06:37:32;101561.41;;;8.80;64.98
8140;BME280;4111;50.972;7.072;2023-04-27T06:39:58;101559.91;;;8.84;65.00
8140;BME280;4111;50.972;7.072;2023-04-27T06:42:25;101558.13;;;9.17;65.04
8140;BME280;4111;50.972;7.072;2023-04-27T06:44:53;101559.16;;;9.16;64.04
8140;BME280;4111;50.972;7.072;2023-04-27T06:47:21;101550.81;;;9.17;63.66
8140;BME280;4111;50.972;7.072;2023-04-27T06:49:48;101549.66;;;9.31;63.59
8140;BME280;4111;50.972;7.072;2023-04-27T06:52:15;101552.78;;;9.35;63.11
8140;BME280;4111;50.972;7.072;2023-04-27T06:54:41;101559.03;;;9.36;62.59
8140;BME280;4111;50.972;7.072;2023-04-27T06:57:08;101554.66;;;9.35;62.23
8140;BME280;4111;50.972;7.072;2023-04-27T06:59:34;101556.78;;;9.32;61.89
8140;BME280;4111;50.972;7.072;2023-04-27T07:02:01;101559.63;;;9.44;61.70
8140;BME280;4111;50.972;7.072;2023-04-27T07:04:27;101552.97;;;9.65;61.35
8140;BME280;4111;50.972;7.072;2023-04-27T07:06:55;101546.41;;;9.80;61.42
8140;BME280;4111;50.972;7.072;2023-04-27T07:09:22;101547.13;;;9.93;61.02
8140;BME280;4111;50.972;7.072;2023-04-27T07:11:53;101545.56;;;10.04;60.31
8140;BME280;4111;50.972;7.072;2023-04-27T07:14:21;101549.78;;;10.00;59.48
8140;BME280;4111;50.972;7.072;2023-04-27T07:16:47;101544.53;;;10.05;59.42
8140;BME280;4111;50.972;7.072;2023-04-27T07:19:13;101545.78;;;10.03;59.02
8140;BME280;4111;50.972;7.072;2023-04-27T07:21:40;101548.88;;;10.06;59.03
8140;BME280;4111;50.972;7.072;2023-04-27T07:24:07;101549.88;;;10.12;58.67
8140;BME280;4111;50.972;7.072;2023-04-27T07:26:33;101546.75;;;10.34;58.91
8140;BME280;4111;50.972;7.072;2023-04-27T07:29:00;101555.44;;;10.42;58.43
8140;BME280;4111;50.972;7.072;2023-04-27T07:31:33;101545.19;;;10.44;58.12
8140;BME280;4111;50.972;7.072;2023-04-27T07:34:00;101546.53;;;10.54;57.66
8140;BME280;4111;50.972;7.072;2023-04-27T07:36:26;101542.28;;;10.76;58.30
8140;BME280;4111;50.972;7.072;2023-04-27T07:38:52;101542.28;;;10.95;57.38
8140;BME280;4111;50.972;7.072;2023-04-27T07:41:19;101540.97;;;11.27;57.58
8140;BME280;4111;50.972;7.072;2023-04-27T07:43:47;101547.84;;;11.00;55.85
8140;BME280;4111;50.972;7.072;2023-04-27T07:46:13;101546.66;;;10.96;55.20
8140;BME280;4111;50.972;7.072;2023-04-27T07:48:39;101534.69;;;11.15;55.17
8140;BME280;4111;50.972;7.072;2023-04-27T07:51:06;101540.97;;;11.27;55.64
8140;BME280;4111;50.972;7.072;2023-04-27T07:53:34;101536.47;;;11.21;54.53
8140;BME280;4111;50.972;7.072;2023-04-27T07:56:00;101537.16;;;11.17;54.51
8140;BME280;4111;50.972;7.072;2023-04-27T07:58:27;101531.31;;;11.31;54.60
8140;BME280;4111;50.972;7.072;2023-04-27T08:00:53;101538.88;;;11.29;54.09
8140;BME280;4111;50.972;7.072;2023-04-27T08:03:19;101541.63;;;11.53;54.63
8140;BME280;4111;50.972;7.072;2023-04-27T08:05:48;101536.19;;;11.95;54.29
8140;BME280;4111;50.972;7.072;2023-04-27T08:08:15;101539.94;;;11.94;52.32
8140;BME280;4111;50.972;7.072;2023-04-27T08:10:42;101533.56;;;12.24;52.12
8140;BME280;4111;50.972;7.072;2023-04-27T08:13:08;101531.41;;;12.38;51.62
8140;BME280;4111;50.972;7.072;2023-04-27T08:15:35;101534.31;;;12.60;51.72
8140;BME280;4111;50.972;7.072;2023-04-27T08:18:02;101531.66;;;12.36;49.55
8140;BME280;4111;50.972;7.072;2023-04-27T08:20:29;101528.03;;;12.71;50.38
8140;BME280;4111;50.972;7.072;2023-04-27T08:22:55;101518.28;;;12.75;48.51
8140;BME280;4111;50.972;7.072;2023-04-27T08:25:22;101528.88;;;12.60;48.31
8140;BME280;4111;50.972;7.072;2023-04-27T08:27:48;101514.78;;;12.63;48.31
8140;BME280;4111;50.972;7.072;2023-04-27T08:30:15;101516.91;;;12.61;47.66
8140;BME280;4111;50.972;7.072;2023-04-27T08:32:41;101525.09;;;12.61;46.87
8140;BME280;4111;50.972;7.072;2023-04-27T08:35:08;101510.75;;;12.54;46.41
8140;BME280;4111;50.972;7.072;2023-04-27T08:37:34;101513.13;;;12.62;46.60
8140;BME280;4111;50.972;7.072;2023-04-27T08:40:03;101520.78;;;12.36;45.26
8140;BME280;4111;50.972;7.072;2023-04-27T08:42:31;101522.06;;;12.34;46.11
8140;BME280;4111;50.972;7.072;2023-04-27T08:44:58;101511.84;;;12.53;46.80
8140;BME280;4111;50.972;7.072;2023-04-27T08:47:24;101511.81;;;12.64;46.48
8140;BME280;4111;50.972;7.072;2023-04-27T08:50:07;101506.28;;;12.47;46.02
8140;BME280;4111;50.972;7.072;2023-04-27T08:52:33;101506.22;;;12.71;46.02
8140;BME280;4111;50.972;7.072;2023-04-27T08:55:00;101506.72;;;12.97;46.11
8140;BME280;4111;50.972;7.072;2023-04-27T08:57:26;101511.13;;;13.15;45.43
8140;BME280;4111;50.972;7.072;2023-04-27T08:59:59;101505.84;;;13.08;45.58
8140;BME280;4111;50.972;7.072;2023-04-27T09:02:26;101503.47;;;13.57;46.10
8140;BME280;4111;50.972;7.072;2023-04-27T09:04:55;101503.19;;;13.42;45.54
8140;BME280;4111;50.972;7.072;2023-04-27T09:07:22;101508.16;;;13.16;44.75
8140;BME280;4111;50.972;7.072;2023-04-27T09:09:49;101499.00;;;13.22;44.70
8140;BME280;4111;50.972;7.072;2023-04-27T09:12:20;101499.31;;;13.38;45.46
8140;BME280;4111;50.972;7.072;2023-04-27T09:14:56;101496.09;;;13.41;45.13
8140;BME280;4111;50.972;7.072;2023-04-27T09:17:24;101492.75;;;13.39;45.31
8140;BME280;4111;50.972;7.072;2023-04-27T09:20:05;101489.47;;;13.54;45.34
8140;BME280;4111;50.972;7.072;2023-04-27T09:22:46;101492.88;;;13.61;45.02
8140;BME280;4111;50.972;7.072;2023-04-27T09:27:52;101485.91;;;14.26;45.59
8140;BME280;4111;50.972;7.072;2023-04-27T09:30:19;101479.09;;;14.51;45.05
8140;BME280;4111;50.972;7.072;2023-04-27T09:32:57;101481.28;;;14.09;44.27
8140;BME280;4111;50.972;7.072;2023-04-27T09:35:27;101488.91;;;14.07;44.82
8140;BME280;4111;50.972;7.072;2023-04-27T09:37:54;101485.91;;;14.26;44.63
8140;BME280;4111;50.972;7.072;2023-04-27T09:40:23;101484.22;;;14.03;44.61
8140;BME280;4111;50.972;7.072;2023-04-27T09:42:53;101493.19;;;13.81;44.40
8140;BME280;4111;50.972;7.072;2023-04-27T09:45:20;101479.91;;;13.51;44.49
8140;BME280;4111;50.972;7.072;2023-04-27T09:47:46;101482.09;;;13.54;45.13
8140;BME280;4111;50.972;7.072;2023-04-27T09:50:13;101477.41;;;13.66;45.33
8140;BME280;4111;50.972;7.072;2023-04-27T09:52:41;101476.50;;;13.61;44.95
8140;BME280;4111;50.972;7.072;2023-04-27T09:55:10;101466.56;;;13.88;44.74
8140;BME280;4111;50.972;7.072;2023-04-27T09:58:05;101473.25;;;13.81;44.56
8140;BME280;4111;50.972;7.072;2023-04-27T10:03:30;101470.44;;;14.15;44.33
8140;BME280;4111;50.972;7.072;2023-04-27T10:08:49;101460.31;;;14.32;43.79
8140;BME280;4111;50.972;7.072;2023-04-27T10:11:17;101454.06;;;14.15;44.04
8140;BME280;4111;50.972;7.072;2023-04-27T10:13:51;101456.06;;;14.63;45.18
8140;BME280;4111;50.972;7.072;2023-04-27T10:16:20;101448.81;;;15.06;44.76
8140;BME280;4111;50.972;7.072;2023-04-27T10:18:54;101445.34;;;15.11;44.27
8140;BME280;4111;50.972;7.072;2023-04-27T10:21:21;101455.22;;;14.63;43.39
8140;BME280;4111;50.972;7.072;2023-04-27T10:23:50;101446.47;;;14.88;43.67
8140;BME280;4111;50.972;7.072;2023-04-27T10:26:24;101442.03;;;15.09;43.87
8140;BME280;4111;50.972;7.072;2023-04-27T10:29:04;101441.50;;;15.12;43.61
8140;BME280;4111;50.972;7.072;2023-04-27T10:31:33;101438.28;;;15.20;43.38
8140;BME280;4111;50.972;7.072;2023-04-27T10:34:10;101435.28;;;15.22;42.94
8140;BME280;4111;50.972;7.072;2023-04-27T10:36:41;101436.16;;;15.27;42.76
8140;BME280;4111;50.972;7.072;2023-04-27T10:39:19;101426.75;;;15.13;42.42
8140;BME280;4111;50.972;7.072;2023-04-27T10:41:58;101425.00;;;15.02;42.28
8140;BME280;4111;50.972;7.072;2023-04-27T10:44:26;101428.28;;;15.04;42.28
8140;BME280;4111;50.972;7.072;2023-04-27T10:46:56;101425.81;;;15.02;42.19
8140;BME280;4111;50.972;7.072;2023-04-27T10:49:22;101423.97;;;14.81;41.70
8140;BME280;4111;50.972;7.072;2023-04-27T10:51:49;101416.66;;;14.86;42.09
8140;BME280;4111;50.972;7.072;2023-04-27T10:54:16;101423.88;;;14.98;42.13
8140;BME280;4111;50.972;7.072;2023-04-27T10:56:44;101408.13;;;14.83;42.16
8140;BME280;4111;50.972;7.072;2023-04-27T10:59:10;101411.19;;;14.86;42.47
8140;BME280;4111;50.972;7.072;2023-04-27T11:01:38;101411.97;;;15.14;43.13
8140;BME280;4111;50.972;7.072;2023-04-27T11:04:05;101408.28;;;15.31;43.14
8140;BME280;4111;50.972;7.072;2023-04-27T11:06:40;101413.41;;;15.22;42.11
8140;BME280;4111;50.972;7.072;2023-04-27T11:09:08;101407.03;;;15.11;42.60
8140;BME280;4111;50.972;7.072;2023-04-27T11:11:36;101414.53;;;15.26;41.80
8140;BME280;4111;50.972;7.072;2023-04-27T11:14:02;101404.72;;;14.98;41.77
8140;BME280;4111;50.972;7.072;2023-04-27T11:16:30;101399.19;;;14.93;41.55
8140;BME280;4111;50.972;7.072;2023-04-27T11:19:03;101403.13;;;15.02;42.22
8140;BME280;4111;50.972;7.072;2023-04-27T11:21:30;101404.88;;;15.18;42.22
8140;BME280;4111;50.972;7.072;2023-04-27T11:24:06;101395.34;;;15.21;42.09
8140;BME280;4111;50.972;7.072;2023-04-27T11:26:32;101388.09;;;15.37;41.72
8140;BME280;4111;50.972;7.072;2023-04-27T11:29:01;101389.72;;;15.38;41.41
8140;BME280;4111;50.972;7.072;2023-04-27T11:31:47;101375.72;;;15.34;41.14
8140;BME280;4111;50.972;7.072;2023-04-27T11:34:19;101385.31;;;15.32;40.85
8140;BME280;4111;50.972;7.072;2023-04-27T11:37:04;101385.84;;;15.29;41.90
8140;BME280;4111;50.972;7.072;2023-04-27T11:39:44;101378.84;;;15.48;41.85
8140;BME280;4111;50.972;7.072;2023-04-27T11:42:22;101379.97;;;15.52;41.27
8140;BME280;4111;50.972;7.072;2023-04-27T11:44:52;101374.00;;;15.65;41.27
8140;BME280;4111;50.972;7.072;2023-04-27T11:47:20;101380.34;;;15.66;40.72
8140;BME280;4111;50.972;7.072;2023-04-27T11:49:49;101381.38;;;15.60;40.76
8140;BME280;4111;50.972;7.072;2023-04-27T11:52:15;101379.00;;;15.74;41.25
8140;BME280;4111;50.972;7.072;2023-04-27T11:54:50;101368.69;;;15.86;40.96
8140;BME280;4111;50.972;7.072;2023-04-27T11:57:27;101367.03;;;15.80;40.36
8140;BME280;4111;50.972;7.072;2023-04-27T11:59:56;101362.09;;;15.82;40.57
8140;BME280;4111;50.972;7.072;2023-04-27T12:02:22;101356.34;;;15.78;40.25
8140;BME280;4111;50.972;7.072;2023-04-27T12:04:49;101366.50;;;15.88;40.43
8140;BME280;4111;50.972;7.072;2023-04-27T12:07:17;101362.41;;;15.91;40.04
8140;BME280;4111;50.972;7.072;2023-04-27T12:09:44;101353.97;;;16.02;39.95
8140;BME280;4111;50.972;7.072;2023-04-27T12:12:11;101353.41;;;16.00;39.12
8140;BME280;4111;50.972;7.072;2023-04-27T12:14:39;101355.53;;;15.78;38.81
8140;BME280;4111;50.972;7.072;2023-04-27T12:17:06;101355.09;;;15.59;39.09
8140;BME280;4111;50.972;7.072;2023-04-27T12:19:33;101351.72;;;15.41;39.21
8140;BME280;4111;50.972;7.072;2023-04-27T12:21:59;101352.56;;;15.47;39.59
8140;BME280;4111;50.972;7.072;2023-04-27T12:24:25;101353.72;;;15.56;39.53
8140;BME280;4111;50.972;7.072;2023-04-27T12:26:52;101351.94;;;15.77;39.43
8140;BME280;4111;50.972;7.072;2023-04-27T12:29:18;101343.50;;;15.84;39.08
8140;BME280;4111;50.972;7.072;2023-04-27T12:31:45;101336.91;;;15.85;38.78
8140;BME280;4111;50.972;7.072;2023-04-27T12:34:12;101327.31;;;15.88;39.17
8140;BME280;4111;50.972;7.072;2023-04-27T12:36:39;101326.41;;;15.66;39.24
8140;BME280;4111;50.972;7.072;2023-04-27T12:39:19;101332.88;;;15.98;39.62
8140;BME280;4111;50.972;7.072;2023-04-27T12:41:46;101336.22;;;16.20;39.34
8140;BME280;4111;50.972;7.072;2023-04-27T12:44:14;101338.16;;;16.30;38.42
8140;BME280;4111;50.972;7.072;2023-04-27T12:46:42;101325.50;;;16.03;38.10
8140;BME280;4111;50.972;7.072;2023-04-27T12:49:09;101329.91;;;16.20;38.32
8140;BME280;4111;50.972;7.072;2023-04-27T12:51:36;101326.94;;;16.32;37.70
8140;BME280;4111;50.972;7.072;2023-04-27T12:54:03;101335.94;;;16.27;38.07
8140;BME280;4111;50.972;7.072;2023-04-27T12:56:30;101321.16;;;16.18;38.36
8140;BME280;4111;50.972;7.072;2023-04-27T12:58:57;101334.34;;;16.36;38.20
8140;BME280;4111;50.972;7.072;2023-04-27T13:01:24;101319.28;;;16.49;37.81
8140;BME280;4111;50.972;7.072;2023-04-27T13:03:54;101317.97;;;16.82;37.86
8140;BME280;4111;50.972;7.072;2023-04-27T13:06:21;101320.41;;;17.10;37.79
8140;BME280;4111;50.972;7.072;2023-04-27T13:08:48;101317.94;;;17.18;37.86
8140;BME280;4111;50.972;7.072;2023-04-27T13:11:15;101319.31;;;17.21;37.31
8140;BME280;4111;50.972;7.072;2023-04-27T13:13:45;101319.84;;;17.23;37.05
8140;BME280;4111;50.972;7.072;2023-04-27T13:16:13;101316.81;;;17.40;37.51
8140;BME280;4111;50.972;7.072;2023-04-27T13:18:39;101317.59;;;17.45;37.55
8140;BME280;4111;50.972;7.072;2023-04-27T13:21:06;101312.09;;;17.56;37.86
8140;BME280;4111;50.972;7.072;2023-04-27T13:23:33;101314.53;;;17.57;37.20
8140;BME280;4111;50.972;7.072;2023-04-27T13:25:59;101306.34;;;17.52;36.73
8140;BME280;4111;50.972;7.072;2023-04-27T13:28:26;101309.03;;;17.68;36.62